sensor_id;sensor_type;location;lat;lon;timestamp;P1;durP1;ratioP1;P2;durP2;ratioP2
18973;SDS011;9621;48.690;9.466;2022-08-16T00:02:00;34.28;;;7.90;;
18973;SDS011;9621;48.690;9.466;2022-08-16T00:04:28;38.40;;;8.18;;
18973;SDS011;9621;48.690;9.466;2022-08-16T00:06:55;16.08;;;7.05;;
18973;SDS011;9621;48.690;9.466;2022-08-16T00:09:22;17.25;;;6.72;;
18973;SDS011;9621;48.690;9.466;2022-08-16T00:11:50;12.63;;;6.50;;
18973;SDS011;9621;48.690;9.466;2022-08-16T00:14:18;12.40;;;6.95;;
18973;SDS011;9621;48.690;9.466;2022-08-16T00:16:47;38.38;;;8.32;;
18973;SDS011;9621;48.690;9.466;2022-08-16T00:19:16;17.33;;;7.68;;
18973;SDS011;9621;48.690;9.466;2022-08-16T00:21:45;8.27;;;7.43;;
18973;SDS011;9621;48.690;9.466;2022-08-16T00:24:12;13.07;;;7.28;;
18973;SDS011;9621;48.690;9.466;2022-08-16T00:26:41;7.72;;;6.68;;
18973;SDS011;9621;48.690;9.466;2022-08-16T00:29:09;11.48;;;6.88;;
18973;SDS011;9621;48.690;9.466;2022-08-16T00:31:36;6.82;;;6.03;;
18973;SDS011;9621;48.690;9.466;2022-08-16T00:34:03;6.63;;;6.07;;
18973;SDS011;9621;48.690;9.466;2022-08-16T00:36:31;7.50;;;6.22;;
18973;SDS011;9621;48.690;9.466;2022-08-16T00:38:58;6.95;;;6.10;;
18973;SDS011;9621;48.690;9.466;2022-08-16T00:41:26;7.68;;;6.45;;
18973;SDS011;9621;48.690;9.466;2022-08-16T00:43:54;7.50;;;6.68;;
18973;SDS011;9621;48.690;9.466;2022-08-16T00:46:22;8.45;;;6.97;;
18973;SDS011;9621;48.690;9.466;2022-08-16T00:48:53;10.43;;;6.18;;
18973;SDS011;9621;48.690;9.466;2022-08-16T00:51:21;7.30;;;6.35;;
18973;SDS011;9621;48.690;9.466;2022-08-16T00:53:51;7.30;;;6.60;;
18973;SDS011;9621;48.690;9.466;2022-08-16T00:56:20;20.55;;;7.30;;
18973;SDS011;9621;48.690;9.466;2022-08-16T00:58:49;30.60;;;8.25;;
18973;SDS011;9621;48.690;9.466;2022-08-16T01:01:17;25.98;;;7.60;;
18973;SDS011;9621;48.690;9.466;2022-08-16T01:03:46;11.70;;;7.32;;
18973;SDS011;9621;48.690;9.466;2022-08-16T01:06:15;19.27;;;7.80;;
18973;SDS011;9621;48.690;9.466;2022-08-16T01:08:45;9.00;;;7.05;;
18973;SDS011;9621;48.690;9.466;2022-08-16T01:11:15;7.05;;;6.45;;
18973;SDS011;9621;48.690;9.466;2022-08-16T01:13:43;7.47;;;6.60;;
18973;SDS011;9621;48.690;9.466;2022-08-16T01:16:13;7.20;;;6.60;;
18973;SDS011;9621;48.690;9.466;2022-08-16T01:18:44;9.23;;;6.65;;
18973;SDS011;9621;48.690;9.466;2022-08-16T01:21:17;9.18;;;6.50;;
18973;SDS011;9621;48.690;9.466;2022-08-16T01:24:21;7.55;;;6.53;;
18973;SDS011;9621;48.690;9.466;2022-08-16T01:26:52;9.00;;;6.85;;
18973;SDS011;9621;48.690;9.466;2022-08-16T01:29:26;8.20;;;7.00;;
18973;SDS011;9621;48.690;9.466;2022-08-16T01:31:57;9.52;;;6.18;;
18973;SDS011;9621;48.690;9.466;2022-08-16T01:34:24;6.45;;;5.85;;
18973;SDS011;9621;48.690;9.466;2022-08-16T01:36:56;9.00;;;6.90;;
18973;SDS011;9621;48.690;9.466;2022-08-16T01:39:29;6.90;;;6.30;;
18973;SDS011;9621;48.690;9.466;2022-08-16T01:41:56;9.07;;;6.50;;
18973;SDS011;9621;48.690;9.466;2022-08-16T01:44:23;10.40;;;7.15;;
18973;SDS011;9621;48.690;9.466;2022-08-16T01:46:51;8.30;;;7.55;;
18973;SDS011;9621;48.690;9.466;2022-08-16T01:49:22;9.43;;;6.95;;
18973;SDS011;9621;48.690;9.466;2022-08-16T01:51:53;8.13;;;7.35;;
18973;SDS011;9621;48.690;9.466;2022-08-16T01:54:22;7.80;;;7.10;;
18973;SDS011;9621;48.690;9.466;2022-08-16T01:56:51;7.45;;;6.85;;
18973;SDS011;9621;48.690;9.466;2022-08-16T01:59:18;8.20;;;7.40;;
18973;SDS011;9621;48.690;9.466;2022-08-16T02:01:46;7.57;;;6.80;;
18973;SDS011;9621;48.690;9.466;2022-08-16T02:04:14;9.10;;;7.10;;
18973;SDS011;9621;48.690;9.466;2022-08-16T02:06:42;7.70;;;7.00;;
18973;SDS011;9621;48.690;9.466;2022-08-16T02:09:10;7.43;;;6.72;;
18973;SDS011;9621;48.690;9.466;2022-08-16T02:11:39;7.70;;;6.95;;
18973;SDS011;9621;48.690;9.466;2022-08-16T02:14:10;7.88;;;6.97;;
18973;SDS011;9621;48.690;9.466;2022-08-16T02:16:38;7.60;;;6.75;;
18973;SDS011;9621;48.690;9.466;2022-08-16T02:19:08;11.15;;;7.13;;
18973;SDS011;9621;48.690;9.466;2022-08-16T02:21:35;10.55;;;7.20;;
18973;SDS011;9621;48.690;9.466;2022-08-16T02:24:02;9.80;;;7.22;;
18973;SDS011;9621;48.690;9.466;2022-08-16T02:26:30;8.05;;;6.70;;
18973;SDS011;9621;48.690;9.466;2022-08-16T02:28:57;8.52;;;7.60;;
18973;SDS011;9621;48.690;9.466;2022-08-16T02:31:25;8.07;;;6.95;;
18973;SDS011;9621;48.690;9.466;2022-08-16T02:33:52;11.50;;;7.55;;
18973;SDS011;9621;48.690;9.466;2022-08-16T02:36:19;7.72;;;7.03;;
18973;SDS011;9621;48.690;9.466;2022-08-16T02:38:46;11.25;;;6.90;;
18973;SDS011;9621;48.690;9.466;2022-08-16T02:41:13;7.93;;;7.00;;
18973;SDS011;9621;48.690;9.466;2022-08-16T02:43:40;7.90;;;7.20;;
18973;SDS011;9621;48.690;9.466;2022-08-16T02:46:08;9.05;;;7.20;;
18973;SDS011;9621;48.690;9.466;2022-08-16T02:48:37;7.75;;;6.93;;
18973;SDS011;9621;48.690;9.466;2022-08-16T02:51:06;10.32;;;7.40;;
18973;SDS011;9621;48.690;9.466;2022-08-16T02:53:34;7.90;;;7.18;;
18973;SDS011;9621;48.690;9.466;2022-08-16T02:56:02;7.95;;;7.15;;
18973;SDS011;9621;48.690;9.466;2022-08-16T02:58:30;8.10;;;4.70;;
18973;SDS011;9621;48.690;9.466;2022-08-16T03:00:58;5.30;;;4.30;;
18973;SDS011;9621;48.690;9.466;2022-08-16T03:03:25;7.22;;;4.07;;
18973;SDS011;9621;48.690;9.466;2022-08-16T03:05:55;6.50;;;4.40;;
18973;SDS011;9621;48.690;9.466;2022-08-16T03:08:22;5.90;;;4.13;;
18973;SDS011;9621;48.690;9.466;2022-08-16T03:10:50;10.27;;;4.82;;
18973;SDS011;9621;48.690;9.466;2022-08-16T03:13:17;7.60;;;4.82;;
18973;SDS011;9621;48.690;9.466;2022-08-16T03:15:47;6.57;;;4.32;;
18973;SDS011;9621;48.690;9.466;2022-08-16T03:18:14;8.80;;;4.53;;
18973;SDS011;9621;48.690;9.466;2022-08-16T03:20:41;8.05;;;4.50;;
18973;SDS011;9621;48.690;9.466;2022-08-16T03:23:10;6.53;;;4.85;;
18973;SDS011;9621;48.690;9.466;2022-08-16T03:25:37;10.27;;;4.53;;
18973;SDS011;9621;48.690;9.466;2022-08-16T03:28:05;8.80;;;4.88;;
18973;SDS011;9621;48.690;9.466;2022-08-16T03:30:33;6.82;;;5.13;;
18973;SDS011;9621;48.690;9.466;2022-08-16T03:33:01;5.93;;;4.28;;
18973;SDS011;9621;48.690;9.466;2022-08-16T03:35:30;7.60;;;4.75;;
18973;SDS011;9621;48.690;9.466;2022-08-16T03:38:00;8.88;;;4.88;;
18973;SDS011;9621;48.690;9.466;2022-08-16T03:40:31;5.53;;;4.43;;
18973;SDS011;9621;48.690;9.466;2022-08-16T03:42:59;8.68;;;5.38;;
18973;SDS011;9621;48.690;9.466;2022-08-16T03:45:29;6.22;;;4.47;;
18973;SDS011;9621;48.690;9.466;2022-08-16T03:47:57;5.85;;;4.53;;
18973;SDS011;9621;48.690;9.466;2022-08-16T03:50:25;6.55;;;5.00;;
18973;SDS011;9621;48.690;9.466;2022-08-16T03:52:52;6.05;;;4.57;;
18973;SDS011;9621;48.690;9.466;2022-08-16T03:55:19;6.32;;;4.70;;
18973;SDS011;9621;48.690;9.466;2022-08-16T03:57:47;7.05;;;4.70;;
18973;SDS011;9621;48.690;9.466;2022-08-16T04:00:19;5.88;;;4.35;;
18973;SDS011;9621;48.690;9.466;2022-08-16T04:02:48;4.75;;;4.25;;
18973;SDS011;9621;48.690;9.466;2022-08-16T04:05:16;6.43;;;4.82;;
18973;SDS011;9621;48.690;9.466;2022-08-16T04:07:43;7.15;;;4.50;;
18973;SDS011;9621;48.690;9.466;2022-08-16T04:10:11;7.90;;;5.22;;
18973;SDS011;9621;48.690;9.466;2022-08-16T04:12:39;5.22;;;4.47;;
18973;SDS011;9621;48.690;9.466;2022-08-16T04:15:10;6.75;;;4.60;;
18973;SDS011;9621;48.690;9.466;2022-08-16T04:17:39;5.97;;;4.30;;
18973;SDS011;9621;48.690;9.466;2022-08-16T04:20:07;5.13;;;4.63;;
18973;SDS011;9621;48.690;9.466;2022-08-16T04:22:35;6.40;;;4.75;;
18973;SDS011;9621;48.690;9.466;2022-08-16T04:25:03;5.35;;;4.70;;
18973;SDS011;9621;48.690;9.466;2022-08-16T04:27:31;6.72;;;4.78;;
18973;SDS011;9621;48.690;9.466;2022-08-16T04:29:58;6.15;;;4.70;;
18973;SDS011;9621;48.690;9.466;2022-08-16T04:32:32;8.85;;;4.78;;
18973;SDS011;9621;48.690;9.466;2022-08-16T04:34:59;5.50;;;3.90;;
18973;SDS011;9621;48.690;9.466;2022-08-16T04:37:26;8.32;;;4.75;;
18973;SDS011;9621;48.690;9.466;2022-08-16T04:39:53;7.00;;;4.82;;
18973;SDS011;9621;48.690;9.466;2022-08-16T04:42:20;6.57;;;4.80;;
18973;SDS011;9621;48.690;9.466;2022-08-16T04:44:47;8.20;;;4.82;;
18973;SDS011;9621;48.690;9.466;2022-08-16T04:47:15;5.97;;;4.95;;
18973;SDS011;9621;48.690;9.466;2022-08-16T04:49:43;7.07;;;4.10;;
18973;SDS011;9621;48.690;9.466;2022-08-16T04:52:10;7.97;;;4.80;;
18973;SDS011;9621;48.690;9.466;2022-08-16T04:54:38;9.35;;;4.78;;
18973;SDS011;9621;48.690;9.466;2022-08-16T04:57:05;8.05;;;4.43;;
18973;SDS011;9621;48.690;9.466;2022-08-16T04:59:32;7.07;;;4.18;;
18973;SDS011;9621;48.690;9.466;2022-08-16T05:01:59;6.65;;;4.50;;
18973;SDS011;9621;48.690;9.466;2022-08-16T05:04:26;8.98;;;4.85;;
18973;SDS011;9621;48.690;9.466;2022-08-16T05:06:55;6.97;;;4.18;;
18973;SDS011;9621;48.690;9.466;2022-08-16T05:09:22;9.27;;;4.57;;
18973;SDS011;9621;48.690;9.466;2022-08-16T05:11:49;8.07;;;4.25;;
18973;SDS011;9621;48.690;9.466;2022-08-16T05:14:16;7.28;;;4.20;;
18973;SDS011;9621;48.690;9.466;2022-08-16T05:16:43;4.80;;;4.13;;
18973;SDS011;9621;48.690;9.466;2022-08-16T05:19:10;5.80;;;4.43;;
18973;SDS011;9621;48.690;9.466;2022-08-16T05:21:37;8.43;;;4.10;;
18973;SDS011;9621;48.690;9.466;2022-08-16T05:24:06;5.68;;;4.40;;
18973;SDS011;9621;48.690;9.466;2022-08-16T05:26:34;5.45;;;3.78;;
18973;SDS011;9621;48.690;9.466;2022-08-16T05:29:02;4.82;;;3.90;;
18973;SDS011;9621;48.690;9.466;2022-08-16T05:31:31;6.10;;;3.97;;
18973;SDS011;9621;48.690;9.466;2022-08-16T05:33:59;5.00;;;4.00;;
18973;SDS011;9621;48.690;9.466;2022-08-16T05:36:27;5.63;;;4.38;;
18973;SDS011;9621;48.690;9.466;2022-08-16T05:38:55;6.82;;;4.55;;
18973;SDS011;9621;48.690;9.466;2022-08-16T05:41:23;4.55;;;3.78;;
18973;SDS011;9621;48.690;9.466;2022-08-16T05:43:50;4.82;;;4.13;;
18973;SDS011;9621;48.690;9.466;2022-08-16T05:46:17;4.55;;;4.07;;
18973;SDS011;9621;48.690;9.466;2022-08-16T05:48:44;6.60;;;4.72;;
18973;SDS011;9621;48.690;9.466;2022-08-16T05:51:12;7.40;;;4.82;;
18973;SDS011;9621;48.690;9.466;2022-08-16T05:53:39;6.43;;;4.50;;
18973;SDS011;9621;48.690;9.466;2022-08-16T05:56:06;6.13;;;5.15;;
18973;SDS011;9621;48.690;9.466;2022-08-16T05:58:35;7.63;;;4.85;;
18973;SDS011;9621;48.690;9.466;2022-08-16T06:01:02;6.32;;;4.43;;
18973;SDS011;9621;48.690;9.466;2022-08-16T06:03:29;5.75;;;4.95;;
18973;SDS011;9621;48.690;9.466;2022-08-16T06:05:57;5.88;;;4.85;;
18973;SDS011;9621;48.690;9.466;2022-08-16T06:08:24;6.78;;;4.82;;
18973;SDS011;9621;48.690;9.466;2022-08-16T06:10:52;5.63;;;4.72;;
18973;SDS011;9621;48.690;9.466;2022-08-16T06:13:19;5.65;;;4.35;;
18973;SDS011;9621;48.690;9.466;2022-08-16T06:15:47;4.72;;;4.13;;
18973;SDS011;9621;48.690;9.466;2022-08-16T06:18:16;6.55;;;4.57;;
18973;SDS011;9621;48.690;9.466;2022-08-16T06:20:43;5.72;;;4.00;;
18973;SDS011;9621;48.690;9.466;2022-08-16T06:23:10;7.03;;;4.50;;
18973;SDS011;9621;48.690;9.466;2022-08-16T06:25:37;5.18;;;4.65;;
18973;SDS011;9621;48.690;9.466;2022-08-16T06:28:04;6.15;;;4.07;;
18973;SDS011;9621;48.690;9.466;2022-08-16T06:30:32;5.40;;;4.43;;
18973;SDS011;9621;48.690;9.466;2022-08-16T06:33:01;7.80;;;4.20;;
18973;SDS011;9621;48.690;9.466;2022-08-16T06:35:28;7.65;;;4.78;;
18973;SDS011;9621;48.690;9.466;2022-08-16T06:37:55;6.75;;;4.10;;
18973;SDS011;9621;48.690;9.466;2022-08-16T06:40:22;7.20;;;4.20;;
18973;SDS011;9621;48.690;9.466;2022-08-16T06:42:50;5.25;;;3.88;;
18973;SDS011;9621;48.690;9.466;2022-08-16T06:45:18;4.85;;;4.25;;
18973;SDS011;9621;48.690;9.466;2022-08-16T06:47:45;4.88;;;4.32;;
18973;SDS011;9621;48.690;9.466;2022-08-16T06:50:14;7.07;;;4.22;;
18973;SDS011;9621;48.690;9.466;2022-08-16T06:52:41;4.40;;;3.67;;
18973;SDS011;9621;48.690;9.466;2022-08-16T06:55:09;4.40;;;3.95;;
18973;SDS011;9621;48.690;9.466;2022-08-16T06:57:37;6.28;;;4.15;;
18973;SDS011;9621;48.690;9.466;2022-08-16T07:00:05;5.10;;;4.00;;
18973;SDS011;9621;48.690;9.466;2022-08-16T07:02:37;4.18;;;3.45;;
18973;SDS011;9621;48.690;9.466;2022-08-16T07:05:05;5.28;;;3.97;;
18973;SDS011;9621;48.690;9.466;2022-08-16T07:07:35;4.63;;;4.00;;
18973;SDS011;9621;48.690;9.466;2022-08-16T07:10:03;5.22;;;3.47;;
18973;SDS011;9621;48.690;9.466;2022-08-16T07:12:30;6.80;;;4.03;;
18973;SDS011;9621;48.690;9.466;2022-08-16T07:14:57;5.20;;;4.70;;
18973;SDS011;9621;48.690;9.466;2022-08-16T07:17:25;4.68;;;3.72;;
18973;SDS011;9621;48.690;9.466;2022-08-16T07:19:53;5.57;;;4.00;;
18973;SDS011;9621;48.690;9.466;2022-08-16T07:22:21;4.32;;;3.78;;
18973;SDS011;9621;48.690;9.466;2022-08-16T07:24:50;4.65;;;4.25;;
18973;SDS011;9621;48.690;9.466;2022-08-16T07:27:17;6.25;;;4.32;;
18973;SDS011;9621;48.690;9.466;2022-08-16T07:29:45;4.80;;;4.07;;
18973;SDS011;9621;48.690;9.466;2022-08-16T07:32:13;6.60;;;4.15;;
18973;SDS011;9621;48.690;9.466;2022-08-16T07:34:40;4.97;;;4.32;;
18973;SDS011;9621;48.690;9.466;2022-08-16T07:37:08;4.90;;;3.88;;
18973;SDS011;9621;48.690;9.466;2022-08-16T07:39:37;7.68;;;3.78;;
18973;SDS011;9621;48.690;9.466;2022-08-16T07:42:05;4.00;;;3.60;;
18973;SDS011;9621;48.690;9.466;2022-08-16T07:44:32;5.65;;;4.00;;
18973;SDS011;9621;48.690;9.466;2022-08-16T07:46:59;6.78;;;3.72;;
18973;SDS011;9621;48.690;9.466;2022-08-16T07:49:26;7.72;;;3.40;;
18973;SDS011;9621;48.690;9.466;2022-08-16T07:51:53;4.80;;;3.45;;
18973;SDS011;9621;48.690;9.466;2022-08-16T07:54:20;5.65;;;3.40;;
18973;SDS011;9621;48.690;9.466;2022-08-16T07:56:47;4.10;;;3.50;;
18973;SDS011;9621;48.690;9.466;2022-08-16T07:59:16;3.17;;;2.60;;
18973;SDS011;9621;48.690;9.466;2022-08-16T08:01:43;5.25;;;3.30;;
18973;SDS011;9621;48.690;9.466;2022-08-16T08:04:10;3.63;;;3.22;;
18973;SDS011;9621;48.690;9.466;2022-08-16T08:06:38;7.22;;;4.00;;
18973;SDS011;9621;48.690;9.466;2022-08-16T08:09:05;4.35;;;3.05;;
18973;SDS011;9621;48.690;9.466;2022-08-16T08:11:32;5.32;;;3.63;;
18973;SDS011;9621;48.690;9.466;2022-08-16T08:14:00;5.55;;;3.55;;
18973;SDS011;9621;48.690;9.466;2022-08-16T08:16:28;4.38;;;3.05;;
18973;SDS011;9621;48.690;9.466;2022-08-16T08:18:57;4.03;;;2.60;;
18973;SDS011;9621;48.690;9.466;2022-08-16T08:21:25;5.13;;;3.10;;
18973;SDS011;9621;48.690;9.466;2022-08-16T08:23:52;4.32;;;2.95;;
18973;SDS011;9621;48.690;9.466;2022-08-16T08:26:21;6.47;;;3.20;;
18973;SDS011;9621;48.690;9.466;2022-08-16T08:28:49;5.45;;;2.95;;
18973;SDS011;9621;48.690;9.466;2022-08-16T08:31:16;3.35;;;3.00;;
18973;SDS011;9621;48.690;9.466;2022-08-16T08:33:45;4.60;;;2.97;;
18973;SDS011;9621;48.690;9.466;2022-08-16T08:36:13;3.97;;;2.80;;
18973;SDS011;9621;48.690;9.466;2022-08-16T08:38:47;4.55;;;2.78;;
18973;SDS011;9621;48.690;9.466;2022-08-16T08:41:15;5.05;;;2.97;;
18973;SDS011;9621;48.690;9.466;2022-08-16T08:43:42;4.75;;;2.63;;
18973;SDS011;9621;48.690;9.466;2022-08-16T08:46:09;4.00;;;2.83;;
18973;SDS011;9621;48.690;9.466;2022-08-16T08:48:36;5.40;;;2.83;;
18973;SDS011;9621;48.690;9.466;2022-08-16T08:51:05;4.28;;;2.80;;
18973;SDS011;9621;48.690;9.466;2022-08-16T08:53:33;4.55;;;2.80;;
18973;SDS011;9621;48.690;9.466;2022-08-16T08:56:01;5.78;;;2.97;;
18973;SDS011;9621;48.690;9.466;2022-08-16T08:58:31;5.13;;;3.10;;
18973;SDS011;9621;48.690;9.466;2022-08-16T09:00:58;4.22;;;2.80;;
18973;SDS011;9621;48.690;9.466;2022-08-16T09:03:27;4.75;;;3.13;;
18973;SDS011;9621;48.690;9.466;2022-08-16T09:05:54;4.45;;;3.00;;
18973;SDS011;9621;48.690;9.466;2022-08-16T09:08:22;5.43;;;3.10;;
18973;SDS011;9621;48.690;9.466;2022-08-16T09:10:51;4.78;;;2.95;;
18973;SDS011;9621;48.690;9.466;2022-08-16T09:13:19;5.70;;;3.22;;
18973;SDS011;9621;48.690;9.466;2022-08-16T09:15:47;4.63;;;3.10;;
18973;SDS011;9621;48.690;9.466;2022-08-16T09:18:14;4.50;;;2.95;;
18973;SDS011;9621;48.690;9.466;2022-08-16T09:20:41;6.30;;;3.28;;
18973;SDS011;9621;48.690;9.466;2022-08-16T09:23:08;8.63;;;3.40;;
18973;SDS011;9621;48.690;9.466;2022-08-16T09:25:37;4.18;;;3.10;;
18973;SDS011;9621;48.690;9.466;2022-08-16T09:28:04;4.90;;;2.90;;
18973;SDS011;9621;48.690;9.466;2022-08-16T09:30:32;4.63;;;2.70;;
18973;SDS011;9621;48.690;9.466;2022-08-16T09:32:59;4.72;;;2.67;;
18973;SDS011;9621;48.690;9.466;2022-08-16T09:35:26;4.95;;;3.10;;
18973;SDS011;9621;48.690;9.466;2022-08-16T09:37:54;3.85;;;3.22;;
18973;SDS011;9621;48.690;9.466;2022-08-16T09:40:22;7.07;;;2.90;;
18973;SDS011;9621;48.690;9.466;2022-08-16T09:42:50;5.72;;;3.45;;
18973;SDS011;9621;48.690;9.466;2022-08-16T09:45:19;9.52;;;3.00;;
18973;SDS011;9621;48.690;9.466;2022-08-16T09:47:46;4.80;;;2.85;;
18973;SDS011;9621;48.690;9.466;2022-08-16T09:50:18;3.83;;;2.85;;
18973;SDS011;9621;48.690;9.466;2022-08-16T09:52:46;3.20;;;2.55;;
18973;SDS011;9621;48.690;9.466;2022-08-16T09:55:13;5.57;;;2.75;;
18973;SDS011;9621;48.690;9.466;2022-08-16T09:57:40;3.35;;;2.80;;
18973;SDS011;9621;48.690;9.466;2022-08-16T10:00:10;4.15;;;2.90;;
18973;SDS011;9621;48.690;9.466;2022-08-16T10:02:38;4.80;;;3.08;;
18973;SDS011;9621;48.690;9.466;2022-08-16T10:05:05;4.65;;;2.55;;
18973;SDS011;9621;48.690;9.466;2022-08-16T10:07:33;3.35;;;2.40;;
18973;SDS011;9621;48.690;9.466;2022-08-16T10:10:00;4.30;;;2.67;;
18973;SDS011;9621;48.690;9.466;2022-08-16T10:12:27;4.03;;;2.70;;
18973;SDS011;9621;48.690;9.466;2022-08-16T10:15:15;5.07;;;2.85;;
18973;SDS011;9621;48.690;9.466;2022-08-16T10:17:44;4.03;;;2.80;;
18973;SDS011;9621;48.690;9.466;2022-08-16T10:20:13;3.20;;;2.40;;
18973;SDS011;9621;48.690;9.466;2022-08-16T10:22:41;2.95;;;2.33;;
18973;SDS011;9621;48.690;9.466;2022-08-16T10:25:08;3.75;;;2.40;;
18973;SDS011;9621;48.690;9.466;2022-08-16T10:27:35;6.93;;;2.83;;
18973;SDS011;9621;48.690;9.466;2022-08-16T10:30:03;7.13;;;2.10;;
18973;SDS011;9621;48.690;9.466;2022-08-16T10:32:33;4.82;;;2.40;;
18973;SDS011;9621;48.690;9.466;2022-08-16T10:35:00;3.95;;;2.70;;
18973;SDS011;9621;48.690;9.466;2022-08-16T10:37:27;4.25;;;2.50;;
18973;SDS011;9621;48.690;9.466;2022-08-16T10:39:54;3.13;;;2.42;;
18973;SDS011;9621;48.690;9.466;2022-08-16T10:42:22;6.47;;;2.45;;
18973;SDS011;9621;48.690;9.466;2022-08-16T10:44:49;4.68;;;2.63;;
18973;SDS011;9621;48.690;9.466;2022-08-16T10:47:16;4.70;;;2.60;;
18973;SDS011;9621;48.690;9.466;2022-08-16T10:49:44;3.10;;;2.75;;
18973;SDS011;9621;48.690;9.466;2022-08-16T10:52:11;3.22;;;2.47;;
18973;SDS011;9621;48.690;9.466;2022-08-16T10:54:39;5.07;;;2.80;;
18973;SDS011;9621;48.690;9.466;2022-08-16T10:57:06;4.20;;;2.63;;
18973;SDS011;9621;48.690;9.466;2022-08-16T10:59:33;2.63;;;2.40;;
18973;SDS011;9621;48.690;9.466;2022-08-16T11:02:00;3.10;;;2.28;;
18973;SDS011;9621;48.690;9.466;2022-08-16T11:04:27;3.10;;;2.08;;
18973;SDS011;9621;48.690;9.466;2022-08-16T11:06:56;5.00;;;2.40;;
18973;SDS011;9621;48.690;9.466;2022-08-16T11:09:23;5.75;;;2.30;;
18973;SDS011;9621;48.690;9.466;2022-08-16T11:11:51;2.50;;;2.30;;
18973;SDS011;9621;48.690;9.466;2022-08-16T11:14:18;2.58;;;2.08;;
18973;SDS011;9621;48.690;9.466;2022-08-16T11:16:45;7.70;;;2.80;;
18973;SDS011;9621;48.690;9.466;2022-08-16T11:19:12;6.75;;;2.15;;
18973;SDS011;9621;48.690;9.466;2022-08-16T11:21:39;5.18;;;2.30;;
18973;SDS011;9621;48.690;9.466;2022-08-16T11:24:08;2.85;;;2.10;;
18973;SDS011;9621;48.690;9.466;2022-08-16T11:26:36;2.75;;;2.10;;
18973;SDS011;9621;48.690;9.466;2022-08-16T11:29:03;5.00;;;2.58;;
18973;SDS011;9621;48.690;9.466;2022-08-16T11:31:31;4.38;;;2.22;;
18973;SDS011;9621;48.690;9.466;2022-08-16T11:33:58;2.47;;;2.17;;
18973;SDS011;9621;48.690;9.466;2022-08-16T11:36:26;2.20;;;1.80;;
18973;SDS011;9621;48.690;9.466;2022-08-16T11:38:53;2.95;;;2.13;;
18973;SDS011;9621;48.690;9.466;2022-08-16T11:41:21;2.22;;;1.88;;
18973;SDS011;9621;48.690;9.466;2022-08-16T11:43:48;3.83;;;2.10;;
18973;SDS011;9621;48.690;9.466;2022-08-16T11:46:15;4.13;;;2.00;;
18973;SDS011;9621;48.690;9.466;2022-08-16T11:48:45;6.90;;;2.10;;
18973;SDS011;9621;48.690;9.466;2022-08-16T11:51:12;4.32;;;2.15;;
18973;SDS011;9621;48.690;9.466;2022-08-16T11:53:39;3.58;;;2.33;;
18973;SDS011;9621;48.690;9.466;2022-08-16T11:56:07;3.55;;;2.30;;
18973;SDS011;9621;48.690;9.466;2022-08-16T11:58:35;4.95;;;2.20;;
18973;SDS011;9621;48.690;9.466;2022-08-16T12:01:03;4.05;;;2.10;;
18973;SDS011;9621;48.690;9.466;2022-08-16T12:03:31;2.88;;;2.30;;
18973;SDS011;9621;48.690;9.466;2022-08-16T12:05:59;3.05;;;1.92;;
18973;SDS011;9621;48.690;9.466;2022-08-16T12:08:29;2.72;;;2.20;;
18973;SDS011;9621;48.690;9.466;2022-08-16T12:10:57;3.58;;;2.33;;
18973;SDS011;9621;48.690;9.466;2022-08-16T12:13:25;4.43;;;2.35;;
18973;SDS011;9621;48.690;9.466;2022-08-16T12:15:54;3.15;;;2.10;;
18973;SDS011;9621;48.690;9.466;2022-08-16T12:18:21;3.08;;;2.20;;
18973;SDS011;9621;48.690;9.466;2022-08-16T12:20:48;2.65;;;1.80;;
18973;SDS011;9621;48.690;9.466;2022-08-16T12:23:15;3.65;;;2.20;;
18973;SDS011;9621;48.690;9.466;2022-08-16T12:25:43;4.05;;;1.95;;
18973;SDS011;9621;48.690;9.466;2022-08-16T12:28:10;4.15;;;2.20;;
18973;SDS011;9621;48.690;9.466;2022-08-16T12:30:38;3.90;;;1.88;;
18973;SDS011;9621;48.690;9.466;2022-08-16T12:33:09;3.75;;;2.05;;
18973;SDS011;9621;48.690;9.466;2022-08-16T12:35:38;3.00;;;1.95;;
18973;SDS011;9621;48.690;9.466;2022-08-16T12:38:06;2.78;;;2.10;;
18973;SDS011;9621;48.690;9.466;2022-08-16T12:40:34;2.30;;;1.98;;
18973;SDS011;9621;48.690;9.466;2022-08-16T12:43:04;3.30;;;2.05;;
18973;SDS011;9621;48.690;9.466;2022-08-16T12:45:33;2.72;;;2.05;;
18973;SDS011;9621;48.690;9.466;2022-08-16T12:48:03;2.33;;;2.10;;
18973;SDS011;9621;48.690;9.466;2022-08-16T12:50:50;4.78;;;2.10;;
18973;SDS011;9621;48.690;9.466;2022-08-16T12:53:18;5.18;;;2.10;;
18973;SDS011;9621;48.690;9.466;2022-08-16T12:55:46;3.35;;;2.25;;
18973;SDS011;9621;48.690;9.466;2022-08-16T12:58:14;2.85;;;2.20;;
18973;SDS011;9621;48.690;9.466;2022-08-16T13:00:42;4.20;;;2.10;;
18973;SDS011;9621;48.690;9.466;2022-08-16T13:03:09;4.07;;;2.08;;
18973;SDS011;9621;48.690;9.466;2022-08-16T13:05:38;5.15;;;2.20;;
18973;SDS011;9621;48.690;9.466;2022-08-16T13:08:08;2.85;;;2.00;;
18973;SDS011;9621;48.690;9.466;2022-08-16T13:10:35;2.10;;;1.90;;
18973;SDS011;9621;48.690;9.466;2022-08-16T13:13:03;2.47;;;2.00;;
18973;SDS011;9621;48.690;9.466;2022-08-16T13:15:30;2.85;;;1.90;;
18973;SDS011;9621;48.690;9.466;2022-08-16T13:17:58;3.95;;;2.28;;
18973;SDS011;9621;48.690;9.466;2022-08-16T13:20:25;3.58;;;2.05;;
18973;SDS011;9621;48.690;9.466;2022-08-16T13:22:57;5.25;;;2.60;;
18973;SDS011;9621;48.690;9.466;2022-08-16T13:25:28;3.13;;;2.25;;
18973;SDS011;9621;48.690;9.466;2022-08-16T13:27:57;2.63;;;2.03;;
18973;SDS011;9621;48.690;9.466;2022-08-16T13:30:25;2.80;;;1.70;;
18973;SDS011;9621;48.690;9.466;2022-08-16T13:32:53;3.28;;;2.28;;
18973;SDS011;9621;48.690;9.466;2022-08-16T13:35:20;4.03;;;2.30;;
18973;SDS011;9621;48.690;9.466;2022-08-16T13:37:48;5.70;;;2.20;;
18973;SDS011;9621;48.690;9.466;2022-08-16T13:40:15;2.65;;;2.10;;
18973;SDS011;9621;48.690;9.466;2022-08-16T13:42:44;3.78;;;1.90;;
18973;SDS011;9621;48.690;9.466;2022-08-16T13:45:12;2.95;;;1.90;;
18973;SDS011;9621;48.690;9.466;2022-08-16T13:47:40;2.75;;;2.05;;
18973;SDS011;9621;48.690;9.466;2022-08-16T13:50:08;3.03;;;2.28;;
18973;SDS011;9621;48.690;9.466;2022-08-16T13:52:37;4.20;;;2.10;;
18973;SDS011;9621;48.690;9.466;2022-08-16T13:55:05;3.88;;;2.10;;
18973;SDS011;9621;48.690;9.466;2022-08-16T13:57:33;3.63;;;2.38;;
18973;SDS011;9621;48.690;9.466;2022-08-16T14:00:02;4.22;;;2.25;;
18973;SDS011;9621;48.690;9.466;2022-08-16T14:02:32;2.28;;;1.90;;
18973;SDS011;9621;48.690;9.466;2022-08-16T14:04:59;3.47;;;1.83;;
18973;SDS011;9621;48.690;9.466;2022-08-16T14:07:25;3.30;;;1.70;;
18973;SDS011;9621;48.690;9.466;2022-08-16T14:09:52;3.05;;;2.40;;
18973;SDS011;9621;48.690;9.466;2022-08-16T14:12:20;2.47;;;2.10;;
18973;SDS011;9621;48.690;9.466;2022-08-16T14:14:52;3.00;;;2.08;;
18973;SDS011;9621;48.690;9.466;2022-08-16T14:17:21;2.50;;;2.08;;
18973;SDS011;9621;48.690;9.466;2022-08-16T14:19:49;2.55;;;1.88;;
18973;SDS011;9621;48.690;9.466;2022-08-16T14:22:17;2.90;;;1.98;;
18973;SDS011;9621;48.690;9.466;2022-08-16T14:24:51;2.92;;;2.20;;
18973;SDS011;9621;48.690;9.466;2022-08-16T14:27:21;2.38;;;1.83;;
18973;SDS011;9621;48.690;9.466;2022-08-16T14:29:51;2.40;;;1.95;;
18973;SDS011;9621;48.690;9.466;2022-08-16T14:32:20;4.03;;;2.30;;
18973;SDS011;9621;48.690;9.466;2022-08-16T14:34:50;4.25;;;2.00;;
18973;SDS011;9621;48.690;9.466;2022-08-16T14:37:16;4.05;;;2.13;;
18973;SDS011;9621;48.690;9.466;2022-08-16T14:39:44;3.55;;;2.10;;
18973;SDS011;9621;48.690;9.466;2022-08-16T14:42:12;4.47;;;2.40;;
18973;SDS011;9621;48.690;9.466;2022-08-16T14:44:42;3.00;;;1.88;;
18973;SDS011;9621;48.690;9.466;2022-08-16T14:47:09;2.05;;;1.80;;
18973;SDS011;9621;48.690;9.466;2022-08-16T14:49:38;2.20;;;1.83;;
18973;SDS011;9621;48.690;9.466;2022-08-16T14:52:06;3.40;;;2.17;;
18973;SDS011;9621;48.690;9.466;2022-08-16T14:54:35;4.57;;;2.08;;
18973;SDS011;9621;48.690;9.466;2022-08-16T14:57:03;3.58;;;2.05;;
18973;SDS011;9621;48.690;9.466;2022-08-16T14:59:30;2.75;;;2.10;;
18973;SDS011;9621;48.690;9.466;2022-08-16T15:01:58;3.40;;;1.98;;
18973;SDS011;9621;48.690;9.466;2022-08-16T15:04:27;3.35;;;1.83;;
18973;SDS011;9621;48.690;9.466;2022-08-16T15:06:56;4.32;;;2.20;;